Current Weather

Norman Y Mineta San Jose Intl

San Jose, California (KSJC)

Report from: Monday, August 15, 2022 5:53 PM PDT
Current time: Monday, August 15, 2022 6:32 PM PDT

Nearby weather
Weather history
Weather forecast

Temperature29.4°C (84.9°F)
Heat index28.7°C (83.7°F)
Dew point12.2°C (54.0°F)
Winds 11 kts (5.7 m/s, 12.7 mph) Northwest (310°)
Visibility10 mi. (16.1 km)
Clouds Sky clear
Altimeter29.79 in.Hg (1009 mB)
Relative humidity35 %
Density altitude2,002 ft. (610 m)
Sea-level pressure100.9 kPa (1009 mB, 29.79 in.Hg)
Remarks Automated weather observing station with precipitation discriminator
Flight conditions Visual Meteorological Conditions
Raw dataKSJC 160053Z 31011KT 10SM CLR 29/12 A2979 RMK AO2 SLP088 T02940122
An error has occurred. This application may no longer respond until reloaded. Reload 🗙